sensor_id;sensor_type;location;lat;lon;timestamp;P1;durP1;ratioP1;P2;durP2;ratioP2
25511;SDS011;13414;44.534;18.700;2023-08-30T00:01:34;8.35;;;3.30;;
25511;SDS011;13414;44.534;18.700;2023-08-30T00:04:02;7.18;;;3.38;;
25511;SDS011;13414;44.534;18.700;2023-08-30T00:06:30;7.18;;;3.50;;
25511;SDS011;13414;44.534;18.700;2023-08-30T00:08:58;8.40;;;3.70;;
25511;SDS011;13414;44.534;18.700;2023-08-30T00:11:25;9.57;;;3.65;;
25511;SDS011;13414;44.534;18.700;2023-08-30T00:14:01;8.45;;;2.80;;
25511;SDS011;13414;44.534;18.700;2023-08-30T00:16:32;6.32;;;2.60;;
25511;SDS011;13414;44.534;18.700;2023-08-30T00:18:59;14.98;;;3.60;;
25511;SDS011;13414;44.534;18.700;2023-08-30T00:21:27;6.10;;;2.35;;
25511;SDS011;13414;44.534;18.700;2023-08-30T00:23:54;8.60;;;3.20;;
25511;SDS011;13414;44.534;18.700;2023-08-30T00:26:22;7.30;;;2.90;;
25511;SDS011;13414;44.534;18.700;2023-08-30T00:28:49;6.57;;;3.10;;
25511;SDS011;13414;44.534;18.700;2023-08-30T00:31:16;7.85;;;3.47;;
25511;SDS011;13414;44.534;18.700;2023-08-30T00:33:45;8.15;;;2.67;;
25511;SDS011;13414;44.534;18.700;2023-08-30T00:36:13;9.98;;;3.28;;
25511;SDS011;13414;44.534;18.700;2023-08-30T00:38:42;6.20;;;3.00;;
25511;SDS011;13414;44.534;18.700;2023-08-30T00:41:09;8.02;;;3.15;;
25511;SDS011;13414;44.534;18.700;2023-08-30T00:43:37;7.82;;;3.05;;
25511;SDS011;13414;44.534;18.700;2023-08-30T00:46:05;5.55;;;2.65;;
25511;SDS011;13414;44.534;18.700;2023-08-30T00:48:33;7.60;;;3.22;;
25511;SDS011;13414;44.534;18.700;2023-08-30T00:51:01;8.40;;;3.47;;
25511;SDS011;13414;44.534;18.700;2023-08-30T00:53:29;9.75;;;2.55;;
25511;SDS011;13414;44.534;18.700;2023-08-30T00:55:56;8.00;;;3.05;;
25511;SDS011;13414;44.534;18.700;2023-08-30T00:58:24;8.23;;;3.03;;
25511;SDS011;13414;44.534;18.700;2023-08-30T01:00:53;10.68;;;3.90;;
25511;SDS011;13414;44.534;18.700;2023-08-30T01:03:20;9.30;;;3.50;;
25511;SDS011;13414;44.534;18.700;2023-08-30T01:05:48;8.50;;;3.58;;
25511;SDS011;13414;44.534;18.700;2023-08-30T01:08:17;9.82;;;3.00;;
25511;SDS011;13414;44.534;18.700;2023-08-30T01:10:47;9.00;;;3.45;;
25511;SDS011;13414;44.534;18.700;2023-08-30T01:13:22;9.70;;;3.97;;
25511;SDS011;13414;44.534;18.700;2023-08-30T01:15:52;10.15;;;3.72;;
25511;SDS011;13414;44.534;18.700;2023-08-30T01:18:21;9.55;;;4.47;;
25511;SDS011;13414;44.534;18.700;2023-08-30T01:20:51;8.45;;;4.18;;
25511;SDS011;13414;44.534;18.700;2023-08-30T01:23:24;7.88;;;3.45;;
25511;SDS011;13414;44.534;18.700;2023-08-30T01:26:04;10.82;;;5.03;;
25511;SDS011;13414;44.534;18.700;2023-08-30T01:28:38;8.48;;;4.05;;
25511;SDS011;13414;44.534;18.700;2023-08-30T01:31:06;7.97;;;3.45;;
25511;SDS011;13414;44.534;18.700;2023-08-30T01:33:35;9.65;;;3.83;;
25511;SDS011;13414;44.534;18.700;2023-08-30T01:36:03;11.60;;;4.18;;
25511;SDS011;13414;44.534;18.700;2023-08-30T01:38:32;10.80;;;3.47;;
25511;SDS011;13414;44.534;18.700;2023-08-30T01:41:01;10.02;;;5.13;;
25511;SDS011;13414;44.534;18.700;2023-08-30T01:43:29;11.70;;;4.10;;
25511;SDS011;13414;44.534;18.700;2023-08-30T01:45:59;9.02;;;4.20;;
25511;SDS011;13414;44.534;18.700;2023-08-30T01:48:29;8.98;;;4.82;;
25511;SDS011;13414;44.534;18.700;2023-08-30T01:50:59;9.40;;;3.63;;
25511;SDS011;13414;44.534;18.700;2023-08-30T01:53:27;7.72;;;3.88;;
25511;SDS011;13414;44.534;18.700;2023-08-30T01:55:55;8.98;;;3.92;;
25511;SDS011;13414;44.534;18.700;2023-08-30T01:58:24;10.15;;;3.83;;
25511;SDS011;13414;44.534;18.700;2023-08-30T02:00:53;6.13;;;2.88;;
25511;SDS011;13414;44.534;18.700;2023-08-30T02:03:23;7.93;;;3.00;;
25511;SDS011;13414;44.534;18.700;2023-08-30T02:05:54;8.02;;;3.10;;
25511;SDS011;13414;44.534;18.700;2023-08-30T02:08:31;6.95;;;3.03;;
25511;SDS011;13414;44.534;18.700;2023-08-30T02:11:07;5.25;;;2.65;;
25511;SDS011;13414;44.534;18.700;2023-08-30T02:13:48;8.95;;;3.25;;
25511;SDS011;13414;44.534;18.700;2023-08-30T02:16:16;9.30;;;3.50;;
25511;SDS011;13414;44.534;18.700;2023-08-30T02:18:46;8.73;;;3.63;;
25511;SDS011;13414;44.534;18.700;2023-08-30T02:21:15;7.90;;;3.42;;
25511;SDS011;13414;44.534;18.700;2023-08-30T02:23:43;9.35;;;3.63;;
25511;SDS011;13414;44.534;18.700;2023-08-30T02:26:15;6.72;;;3.10;;
25511;SDS011;13414;44.534;18.700;2023-08-30T02:28:46;10.40;;;3.28;;
25511;SDS011;13414;44.534;18.700;2023-08-30T02:31:13;6.88;;;3.30;;
25511;SDS011;13414;44.534;18.700;2023-08-30T02:33:41;9.32;;;3.25;;
25511;SDS011;13414;44.534;18.700;2023-08-30T02:36:12;7.03;;;3.17;;
25511;SDS011;13414;44.534;18.700;2023-08-30T02:38:39;11.00;;;3.45;;
25511;SDS011;13414;44.534;18.700;2023-08-30T02:41:07;6.00;;;3.42;;
25511;SDS011;13414;44.534;18.700;2023-08-30T02:43:35;9.15;;;3.60;;
25511;SDS011;13414;44.534;18.700;2023-08-30T02:46:03;10.77;;;3.63;;
25511;SDS011;13414;44.534;18.700;2023-08-30T02:48:31;14.32;;;4.07;;
25511;SDS011;13414;44.534;18.700;2023-08-30T02:50:59;10.30;;;4.63;;
25511;SDS011;13414;44.534;18.700;2023-08-30T02:53:28;7.80;;;3.50;;
25511;SDS011;13414;44.534;18.700;2023-08-30T02:55:55;10.38;;;4.15;;
25511;SDS011;13414;44.534;18.700;2023-08-30T02:58:23;8.20;;;4.20;;
25511;SDS011;13414;44.534;18.700;2023-08-30T03:00:56;12.48;;;4.43;;
25511;SDS011;13414;44.534;18.700;2023-08-30T03:03:24;9.80;;;3.88;;
25511;SDS011;13414;44.534;18.700;2023-08-30T03:05:52;8.68;;;4.15;;
25511;SDS011;13414;44.534;18.700;2023-08-30T03:08:20;8.63;;;3.63;;
25511;SDS011;13414;44.534;18.700;2023-08-30T03:10:49;7.00;;;3.03;;
25511;SDS011;13414;44.534;18.700;2023-08-30T03:13:17;10.55;;;3.58;;
25511;SDS011;13414;44.534;18.700;2023-08-30T03:15:47;10.77;;;4.00;;
25511;SDS011;13414;44.534;18.700;2023-08-30T03:18:14;8.35;;;3.67;;
25511;SDS011;13414;44.534;18.700;2023-08-30T03:20:42;9.30;;;3.80;;
25511;SDS011;13414;44.534;18.700;2023-08-30T03:23:09;11.93;;;3.63;;
25511;SDS011;13414;44.534;18.700;2023-08-30T03:25:37;13.35;;;3.92;;
25511;SDS011;13414;44.534;18.700;2023-08-30T03:28:06;11.38;;;4.35;;
25511;SDS011;13414;44.534;18.700;2023-08-30T03:30:34;8.40;;;3.67;;
25511;SDS011;13414;44.534;18.700;2023-08-30T03:33:01;8.50;;;3.90;;
25511;SDS011;13414;44.534;18.700;2023-08-30T03:35:33;8.07;;;3.63;;
25511;SDS011;13414;44.534;18.700;2023-08-30T03:38:00;8.88;;;4.07;;
25511;SDS011;13414;44.534;18.700;2023-08-30T03:40:29;12.32;;;4.50;;
25511;SDS011;13414;44.534;18.700;2023-08-30T03:42:56;8.80;;;3.75;;
25511;SDS011;13414;44.534;18.700;2023-08-30T03:45:25;8.98;;;3.72;;
25511;SDS011;13414;44.534;18.700;2023-08-30T03:47:53;8.45;;;3.72;;
25511;SDS011;13414;44.534;18.700;2023-08-30T03:50:20;9.05;;;3.60;;
25511;SDS011;13414;44.534;18.700;2023-08-30T03:52:48;8.63;;;4.00;;
25511;SDS011;13414;44.534;18.700;2023-08-30T03:55:16;8.63;;;3.78;;
25511;SDS011;13414;44.534;18.700;2023-08-30T03:57:43;8.43;;;3.80;;
25511;SDS011;13414;44.534;18.700;2023-08-30T04:00:11;8.98;;;3.88;;
25511;SDS011;13414;44.534;18.700;2023-08-30T04:02:43;11.30;;;4.45;;
25511;SDS011;13414;44.534;18.700;2023-08-30T04:05:11;11.75;;;4.30;;
25511;SDS011;13414;44.534;18.700;2023-08-30T04:07:39;11.43;;;4.90;;
25511;SDS011;13414;44.534;18.700;2023-08-30T04:10:07;8.88;;;4.25;;
25511;SDS011;13414;44.534;18.700;2023-08-30T04:12:35;10.80;;;4.22;;
25511;SDS011;13414;44.534;18.700;2023-08-30T04:15:04;9.18;;;4.43;;
25511;SDS011;13414;44.534;18.700;2023-08-30T04:17:32;12.63;;;5.03;;
25511;SDS011;13414;44.534;18.700;2023-08-30T04:20:01;7.88;;;4.20;;
25511;SDS011;13414;44.534;18.700;2023-08-30T04:22:29;9.45;;;4.55;;
25511;SDS011;13414;44.534;18.700;2023-08-30T04:25:00;14.38;;;4.93;;
25511;SDS011;13414;44.534;18.700;2023-08-30T04:27:28;17.38;;;4.50;;
25511;SDS011;13414;44.534;18.700;2023-08-30T04:29:56;11.15;;;4.03;;
25511;SDS011;13414;44.534;18.700;2023-08-30T04:32:23;12.02;;;3.92;;
25511;SDS011;13414;44.534;18.700;2023-08-30T04:34:51;8.52;;;3.60;;
25511;SDS011;13414;44.534;18.700;2023-08-30T04:37:20;12.68;;;4.35;;
25511;SDS011;13414;44.534;18.700;2023-08-30T04:39:47;32.55;;;6.43;;
25511;SDS011;13414;44.534;18.700;2023-08-30T04:42:16;10.73;;;3.75;;
25511;SDS011;13414;44.534;18.700;2023-08-30T04:44:44;8.23;;;3.63;;
25511;SDS011;13414;44.534;18.700;2023-08-30T04:47:11;10.23;;;4.32;;
25511;SDS011;13414;44.534;18.700;2023-08-30T04:49:38;10.55;;;3.28;;
25511;SDS011;13414;44.534;18.700;2023-08-30T04:52:06;10.18;;;4.20;;
25511;SDS011;13414;44.534;18.700;2023-08-30T04:54:36;10.85;;;4.47;;
25511;SDS011;13414;44.534;18.700;2023-08-30T04:57:04;11.32;;;4.28;;
25511;SDS011;13414;44.534;18.700;2023-08-30T04:59:33;10.93;;;4.90;;
25511;SDS011;13414;44.534;18.700;2023-08-30T05:02:00;14.77;;;6.40;;
25511;SDS011;13414;44.534;18.700;2023-08-30T05:04:29;11.55;;;5.30;;
25511;SDS011;13414;44.534;18.700;2023-08-30T05:06:57;8.50;;;4.95;;
25511;SDS011;13414;44.534;18.700;2023-08-30T05:09:24;13.48;;;4.40;;
25511;SDS011;13414;44.534;18.700;2023-08-30T05:11:54;13.35;;;4.80;;
25511;SDS011;13414;44.534;18.700;2023-08-30T05:14:21;9.38;;;4.97;;
25511;SDS011;13414;44.534;18.700;2023-08-30T05:16:49;9.90;;;4.60;;
25511;SDS011;13414;44.534;18.700;2023-08-30T05:19:20;12.95;;;4.45;;
25511;SDS011;13414;44.534;18.700;2023-08-30T05:21:48;11.88;;;4.38;;
25511;SDS011;13414;44.534;18.700;2023-08-30T05:24:20;11.07;;;5.00;;
25511;SDS011;13414;44.534;18.700;2023-08-30T05:26:47;14.15;;;4.78;;
25511;SDS011;13414;44.534;18.700;2023-08-30T05:29:18;9.60;;;4.00;;
25511;SDS011;13414;44.534;18.700;2023-08-30T05:31:45;13.98;;;7.00;;
25511;SDS011;13414;44.534;18.700;2023-08-30T05:34:24;11.38;;;7.03;;
25511;SDS011;13414;44.534;18.700;2023-08-30T05:37:16;11.48;;;6.65;;
25511;SDS011;13414;44.534;18.700;2023-08-30T05:39:56;11.95;;;5.28;;
25511;SDS011;13414;44.534;18.700;2023-08-30T05:42:24;10.57;;;4.00;;
25511;SDS011;13414;44.534;18.700;2023-08-30T05:44:56;11.32;;;6.57;;
25511;SDS011;13414;44.534;18.700;2023-08-30T05:47:24;15.32;;;4.97;;
25511;SDS011;13414;44.534;18.700;2023-08-30T05:49:51;11.63;;;7.35;;
25511;SDS011;13414;44.534;18.700;2023-08-30T05:52:19;15.40;;;6.38;;
25511;SDS011;13414;44.534;18.700;2023-08-30T05:54:46;10.70;;;4.78;;
25511;SDS011;13414;44.534;18.700;2023-08-30T05:57:14;12.88;;;4.65;;
25511;SDS011;13414;44.534;18.700;2023-08-30T05:59:42;10.35;;;4.35;;
25511;SDS011;13414;44.534;18.700;2023-08-30T06:02:11;9.40;;;4.60;;
25511;SDS011;13414;44.534;18.700;2023-08-30T06:04:38;9.75;;;4.10;;
25511;SDS011;13414;44.534;18.700;2023-08-30T06:07:06;8.80;;;4.15;;
25511;SDS011;13414;44.534;18.700;2023-08-30T06:09:33;11.25;;;4.88;;
25511;SDS011;13414;44.534;18.700;2023-08-30T06:12:01;11.23;;;6.82;;
25511;SDS011;13414;44.534;18.700;2023-08-30T06:14:29;14.70;;;9.73;;
25511;SDS011;13414;44.534;18.700;2023-08-30T06:16:56;16.65;;;7.35;;
25511;SDS011;13414;44.534;18.700;2023-08-30T06:19:25;14.38;;;7.10;;
25511;SDS011;13414;44.534;18.700;2023-08-30T06:21:53;15.70;;;7.32;;
25511;SDS011;13414;44.534;18.700;2023-08-30T06:24:21;9.45;;;5.18;;
25511;SDS011;13414;44.534;18.700;2023-08-30T06:26:48;13.43;;;5.07;;
25511;SDS011;13414;44.534;18.700;2023-08-30T06:29:16;11.60;;;4.07;;
25511;SDS011;13414;44.534;18.700;2023-08-30T06:31:43;16.00;;;8.32;;
25511;SDS011;13414;44.534;18.700;2023-08-30T06:34:11;12.10;;;5.93;;
25511;SDS011;13414;44.534;18.700;2023-08-30T06:36:40;10.35;;;5.63;;
25511;SDS011;13414;44.534;18.700;2023-08-30T06:39:08;12.05;;;4.70;;
25511;SDS011;13414;44.534;18.700;2023-08-30T06:41:35;11.35;;;4.63;;
25511;SDS011;13414;44.534;18.700;2023-08-30T06:44:03;11.85;;;4.30;;
25511;SDS011;13414;44.534;18.700;2023-08-30T06:46:31;10.50;;;5.22;;
25511;SDS011;13414;44.534;18.700;2023-08-30T06:48:58;13.60;;;5.45;;
25511;SDS011;13414;44.534;18.700;2023-08-30T06:51:26;10.45;;;4.43;;
25511;SDS011;13414;44.534;18.700;2023-08-30T06:53:55;16.65;;;9.95;;
25511;SDS011;13414;44.534;18.700;2023-08-30T06:56:25;30.63;;;15.10;;
25511;SDS011;13414;44.534;18.700;2023-08-30T06:58:53;12.05;;;5.97;;
25511;SDS011;13414;44.534;18.700;2023-08-30T07:01:20;11.40;;;5.10;;
25511;SDS011;13414;44.534;18.700;2023-08-30T07:03:48;14.38;;;5.30;;
25511;SDS011;13414;44.534;18.700;2023-08-30T07:06:15;19.58;;;6.18;;
25511;SDS011;13414;44.534;18.700;2023-08-30T07:08:43;12.10;;;4.78;;
25511;SDS011;13414;44.534;18.700;2023-08-30T07:11:12;10.93;;;4.60;;
25511;SDS011;13414;44.534;18.700;2023-08-30T07:13:39;9.55;;;4.82;;
25511;SDS011;13414;44.534;18.700;2023-08-30T07:16:07;11.82;;;5.05;;
25511;SDS011;13414;44.534;18.700;2023-08-30T07:18:34;11.15;;;5.28;;
25511;SDS011;13414;44.534;18.700;2023-08-30T07:21:02;8.50;;;3.65;;
25511;SDS011;13414;44.534;18.700;2023-08-30T07:23:29;12.63;;;5.72;;
25511;SDS011;13414;44.534;18.700;2023-08-30T07:25:57;7.82;;;4.85;;
25511;SDS011;13414;44.534;18.700;2023-08-30T07:28:26;8.30;;;4.30;;
25511;SDS011;13414;44.534;18.700;2023-08-30T07:31:01;8.88;;;3.95;;
25511;SDS011;13414;44.534;18.700;2023-08-30T07:33:29;8.25;;;3.80;;
25511;SDS011;13414;44.534;18.700;2023-08-30T07:35:56;7.88;;;3.90;;
25511;SDS011;13414;44.534;18.700;2023-08-30T07:38:24;5.47;;;3.20;;
25511;SDS011;13414;44.534;18.700;2023-08-30T07:40:52;6.68;;;4.32;;
25511;SDS011;13414;44.534;18.700;2023-08-30T07:43:20;8.43;;;4.32;;
25511;SDS011;13414;44.534;18.700;2023-08-30T07:45:49;6.05;;;3.30;;
25511;SDS011;13414;44.534;18.700;2023-08-30T07:48:17;8.90;;;3.83;;
25511;SDS011;13414;44.534;18.700;2023-08-30T07:50:44;7.72;;;3.90;;
25511;SDS011;13414;44.534;18.700;2023-08-30T07:53:12;7.00;;;3.53;;
25511;SDS011;13414;44.534;18.700;2023-08-30T07:55:39;10.68;;;2.63;;
25511;SDS011;13414;44.534;18.700;2023-08-30T07:58:07;6.65;;;3.95;;
25511;SDS011;13414;44.534;18.700;2023-08-30T08:00:35;7.72;;;3.70;;
25511;SDS011;13414;44.534;18.700;2023-08-30T08:03:05;11.23;;;4.90;;
25511;SDS011;13414;44.534;18.700;2023-08-30T08:05:33;10.55;;;5.75;;
25511;SDS011;13414;44.534;18.700;2023-08-30T08:08:02;5.30;;;3.42;;
25511;SDS011;13414;44.534;18.700;2023-08-30T08:10:31;5.75;;;3.20;;
25511;SDS011;13414;44.534;18.700;2023-08-30T08:12:59;9.20;;;3.63;;
25511;SDS011;13414;44.534;18.700;2023-08-30T08:15:27;10.02;;;6.47;;
25511;SDS011;13414;44.534;18.700;2023-08-30T08:17:56;8.63;;;3.85;;
25511;SDS011;13414;44.534;18.700;2023-08-30T08:20:25;35.30;;;5.28;;
25511;SDS011;13414;44.534;18.700;2023-08-30T08:22:52;5.85;;;3.13;;
25511;SDS011;13414;44.534;18.700;2023-08-30T08:25:20;6.13;;;3.17;;
25511;SDS011;13414;44.534;18.700;2023-08-30T08:27:49;6.35;;;2.53;;
25511;SDS011;13414;44.534;18.700;2023-08-30T08:30:17;6.60;;;3.10;;
25511;SDS011;13414;44.534;18.700;2023-08-30T08:32:46;7.63;;;2.45;;
25511;SDS011;13414;44.534;18.700;2023-08-30T08:35:14;9.25;;;3.35;;
25511;SDS011;13414;44.534;18.700;2023-08-30T08:37:43;6.60;;;3.00;;
25511;SDS011;13414;44.534;18.700;2023-08-30T08:40:10;5.22;;;2.53;;
25511;SDS011;13414;44.534;18.700;2023-08-30T08:42:38;6.10;;;3.45;;
25511;SDS011;13414;44.534;18.700;2023-08-30T08:45:06;5.03;;;2.60;;
25511;SDS011;13414;44.534;18.700;2023-08-30T08:47:37;6.55;;;2.75;;
25511;SDS011;13414;44.534;18.700;2023-08-30T08:50:05;6.57;;;3.00;;
25511;SDS011;13414;44.534;18.700;2023-08-30T08:52:33;7.20;;;3.85;;
25511;SDS011;13414;44.534;18.700;2023-08-30T08:55:02;6.60;;;3.38;;
25511;SDS011;13414;44.534;18.700;2023-08-30T08:57:30;9.02;;;3.03;;
25511;SDS011;13414;44.534;18.700;2023-08-30T08:59:58;6.38;;;3.38;;
25511;SDS011;13414;44.534;18.700;2023-08-30T09:02:25;6.20;;;3.08;;
25511;SDS011;13414;44.534;18.700;2023-08-30T09:04:54;5.10;;;2.97;;
25511;SDS011;13414;44.534;18.700;2023-08-30T09:07:24;5.00;;;2.35;;
25511;SDS011;13414;44.534;18.700;2023-08-30T09:09:54;5.78;;;3.03;;
25511;SDS011;13414;44.534;18.700;2023-08-30T09:12:23;7.68;;;2.80;;
25511;SDS011;13414;44.534;18.700;2023-08-30T09:14:53;4.82;;;2.75;;
25511;SDS011;13414;44.534;18.700;2023-08-30T09:17:22;6.20;;;2.75;;
25511;SDS011;13414;44.534;18.700;2023-08-30T09:19:50;5.60;;;2.80;;
25511;SDS011;13414;44.534;18.700;2023-08-30T09:22:18;6.35;;;3.10;;
25511;SDS011;13414;44.534;18.700;2023-08-30T09:24:45;6.50;;;3.30;;
25511;SDS011;13414;44.534;18.700;2023-08-30T09:27:13;9.00;;;3.50;;
25511;SDS011;13414;44.534;18.700;2023-08-30T09:29:42;9.57;;;3.92;;
25511;SDS011;13414;44.534;18.700;2023-08-30T09:32:10;15.07;;;4.35;;
25511;SDS011;13414;44.534;18.700;2023-08-30T09:34:45;10.77;;;4.22;;
25511;SDS011;13414;44.534;18.700;2023-08-30T09:37:19;9.55;;;4.00;;
25511;SDS011;13414;44.534;18.700;2023-08-30T09:39:48;11.18;;;4.18;;
25511;SDS011;13414;44.534;18.700;2023-08-30T09:42:16;7.85;;;4.13;;
25511;SDS011;13414;44.534;18.700;2023-08-30T09:44:46;5.70;;;2.47;;
25511;SDS011;13414;44.534;18.700;2023-08-30T09:47:14;8.65;;;3.47;;
25511;SDS011;13414;44.534;18.700;2023-08-30T09:49:42;10.30;;;3.33;;
25511;SDS011;13414;44.534;18.700;2023-08-30T09:52:12;7.97;;;3.05;;
25511;SDS011;13414;44.534;18.700;2023-08-30T09:54:42;10.45;;;3.72;;
25511;SDS011;13414;44.534;18.700;2023-08-30T09:57:10;8.80;;;3.67;;
25511;SDS011;13414;44.534;18.700;2023-08-30T09:59:39;8.43;;;3.42;;
25511;SDS011;13414;44.534;18.700;2023-08-30T10:04:39;8.40;;;3.53;;
25511;SDS011;13414;44.534;18.700;2023-08-30T10:07:08;8.27;;;3.95;;
25511;SDS011;13414;44.534;18.700;2023-08-30T10:09:36;8.07;;;3.17;;
25511;SDS011;13414;44.534;18.700;2023-08-30T10:12:05;9.20;;;3.47;;
25511;SDS011;13414;44.534;18.700;2023-08-30T10:14:34;8.48;;;3.58;;
25511;SDS011;13414;44.534;18.700;2023-08-30T10:17:02;7.13;;;4.25;;
25511;SDS011;13414;44.534;18.700;2023-08-30T10:19:30;8.52;;;3.75;;
25511;SDS011;13414;44.534;18.700;2023-08-30T10:22:01;7.03;;;2.75;;
25511;SDS011;13414;44.534;18.700;2023-08-30T10:24:31;6.78;;;3.53;;
25511;SDS011;13414;44.534;18.700;2023-08-30T10:27:03;9.85;;;4.93;;
25511;SDS011;13414;44.534;18.700;2023-08-30T10:29:34;10.70;;;5.05;;
25511;SDS011;13414;44.534;18.700;2023-08-30T10:32:03;8.20;;;3.78;;
25511;SDS011;13414;44.534;18.700;2023-08-30T10:34:31;8.68;;;4.20;;
25511;SDS011;13414;44.534;18.700;2023-08-30T10:37:00;8.85;;;3.60;;
25511;SDS011;13414;44.534;18.700;2023-08-30T10:39:33;9.20;;;4.28;;
25511;SDS011;13414;44.534;18.700;2023-08-30T10:42:06;9.63;;;4.50;;
25511;SDS011;13414;44.534;18.700;2023-08-30T10:44:46;7.13;;;3.10;;
25511;SDS011;13414;44.534;18.700;2023-08-30T10:47:18;10.18;;;4.90;;
25511;SDS011;13414;44.534;18.700;2023-08-30T10:49:49;8.77;;;5.20;;
25511;SDS011;13414;44.534;18.700;2023-08-30T10:52:19;10.05;;;4.00;;
25511;SDS011;13414;44.534;18.700;2023-08-30T10:54:46;11.50;;;4.88;;
25511;SDS011;13414;44.534;18.700;2023-08-30T10:57:18;8.95;;;3.90;;
25511;SDS011;13414;44.534;18.700;2023-08-30T11:02:35;8.57;;;3.78;;
25511;SDS011;13414;44.534;18.700;2023-08-30T11:05:03;5.80;;;2.85;;
25511;SDS011;13414;44.534;18.700;2023-08-30T11:07:34;8.07;;;4.53;;
25511;SDS011;13414;44.534;18.700;2023-08-30T11:10:04;16.00;;;11.32;;
25511;SDS011;13414;44.534;18.700;2023-08-30T11:12:32;10.52;;;4.03;;
25511;SDS011;13414;44.534;18.700;2023-08-30T11:15:00;6.30;;;3.88;;
25511;SDS011;13414;44.534;18.700;2023-08-30T11:17:28;7.07;;;4.00;;
25511;SDS011;13414;44.534;18.700;2023-08-30T11:20:04;7.40;;;4.97;;
25511;SDS011;13414;44.534;18.700;2023-08-30T11:22:35;6.75;;;2.78;;
25511;SDS011;13414;44.534;18.700;2023-08-30T11:25:04;5.90;;;3.42;;
25511;SDS011;13414;44.534;18.700;2023-08-30T11:27:32;10.45;;;7.13;;
25511;SDS011;13414;44.534;18.700;2023-08-30T11:29:59;7.10;;;4.18;;
25511;SDS011;13414;44.534;18.700;2023-08-30T11:32:32;8.02;;;3.75;;
25511;SDS011;13414;44.534;18.700;2023-08-30T11:35:00;11.60;;;4.38;;
25511;SDS011;13414;44.534;18.700;2023-08-30T11:37:28;7.25;;;4.03;;
25511;SDS011;13414;44.534;18.700;2023-08-30T11:43:03;39.65;;;28.88;;
25511;SDS011;13414;44.534;18.700;2023-08-30T11:45:32;7.75;;;3.30;;
25511;SDS011;13414;44.534;18.700;2023-08-30T12:31:59;5.95;;;3.78;;
25511;SDS011;13414;44.534;18.700;2023-08-30T13:53:04;9.43;;;5.28;;
25511;SDS011;13414;44.534;18.700;2023-08-30T13:55:32;7.10;;;5.20;;
25511;SDS011;13414;44.534;18.700;2023-08-30T13:58:00;6.22;;;5.15;;
25511;SDS011;13414;44.534;18.700;2023-08-30T14:00:27;7.90;;;4.68;;
25511;SDS011;13414;44.534;18.700;2023-08-30T14:02:58;6.40;;;5.18;;
25511;SDS011;13414;44.534;18.700;2023-08-30T14:05:26;9.68;;;5.47;;
25511;SDS011;13414;44.534;18.700;2023-08-30T14:07:53;7.25;;;5.78;;
25511;SDS011;13414;44.534;18.700;2023-08-30T14:10:22;11.65;;;5.38;;
25511;SDS011;13414;44.534;18.700;2023-08-30T14:12:50;7.95;;;5.82;;
25511;SDS011;13414;44.534;18.700;2023-08-30T14:15:17;9.02;;;5.60;;
25511;SDS011;13414;44.534;18.700;2023-08-30T14:17:45;9.73;;;5.35;;
25511;SDS011;13414;44.534;18.700;2023-08-30T14:20:12;5.95;;;5.22;;
25511;SDS011;13414;44.534;18.700;2023-08-30T14:22:40;10.77;;;5.63;;
25511;SDS011;13414;44.534;18.700;2023-08-30T14:25:08;6.75;;;5.85;;
25511;SDS011;13414;44.534;18.700;2023-08-30T14:27:37;8.65;;;6.85;;
25511;SDS011;13414;44.534;18.700;2023-08-30T14:30:07;8.50;;;7.22;;
25511;SDS011;13414;44.534;18.700;2023-08-30T14:32:35;9.30;;;6.78;;
25511;SDS011;13414;44.534;18.700;2023-08-30T14:35:03;9.50;;;7.25;;
25511;SDS011;13414;44.534;18.700;2023-08-30T14:37:31;7.72;;;6.38;;
25511;SDS011;13414;44.534;18.700;2023-08-30T14:39:59;8.50;;;6.97;;
25511;SDS011;13414;44.534;18.700;2023-08-30T14:42:27;7.85;;;7.00;;
25511;SDS011;13414;44.534;18.700;2023-08-30T14:44:56;9.00;;;7.38;;
25511;SDS011;13414;44.534;18.700;2023-08-30T14:47:23;9.05;;;7.30;;
25511;SDS011;13414;44.534;18.700;2023-08-30T14:49:51;9.40;;;7.45;;
25511;SDS011;13414;44.534;18.700;2023-08-30T14:52:18;10.75;;;7.78;;
25511;SDS011;13414;44.534;18.700;2023-08-30T14:54:46;9.73;;;7.55;;
25511;SDS011;13414;44.534;18.700;2023-08-30T14:57:13;11.32;;;9.77;;
25511;SDS011;13414;44.534;18.700;2023-08-30T14:59:41;10.60;;;8.88;;
25511;SDS011;13414;44.534;18.700;2023-08-30T15:02:10;11.20;;;7.55;;
25511;SDS011;13414;44.534;18.700;2023-08-30T15:04:37;10.48;;;7.45;;
25511;SDS011;13414;44.534;18.700;2023-08-30T15:07:04;12.30;;;7.63;;
25511;SDS011;13414;44.534;18.700;2023-08-30T15:09:32;10.98;;;7.57;;
25511;SDS011;13414;44.534;18.700;2023-08-30T15:12:00;9.43;;;7.57;;
25511;SDS011;13414;44.534;18.700;2023-08-30T15:14:29;10.95;;;8.05;;
25511;SDS011;13414;44.534;18.700;2023-08-30T15:16:56;10.43;;;7.28;;
25511;SDS011;13414;44.534;18.700;2023-08-30T15:19:25;12.30;;;7.22;;
25511;SDS011;13414;44.534;18.700;2023-08-30T15:21:52;7.88;;;7.03;;
25511;SDS011;13414;44.534;18.700;2023-08-30T15:24:20;10.68;;;8.13;;
25511;SDS011;13414;44.534;18.700;2023-08-30T15:26:47;9.20;;;7.40;;
25511;SDS011;13414;44.534;18.700;2023-08-30T15:29:15;12.35;;;7.85;;
25511;SDS011;13414;44.534;18.700;2023-08-30T15:31:43;12.85;;;11.38;;
25511;SDS011;13414;44.534;18.700;2023-08-30T15:34:15;10.73;;;7.97;;
25511;SDS011;13414;44.534;18.700;2023-08-30T15:36:46;10.60;;;9.15;;
25511;SDS011;13414;44.534;18.700;2023-08-30T15:39:13;11.25;;;8.10;;
25511;SDS011;13414;44.534;18.700;2023-08-30T15:41:43;9.63;;;8.60;;
25511;SDS011;13414;44.534;18.700;2023-08-30T15:44:12;18.13;;;9.40;;
25511;SDS011;13414;44.534;18.700;2023-08-30T15:46:40;16.58;;;12.57;;
25511;SDS011;13414;44.534;18.700;2023-08-30T15:49:08;19.08;;;14.82;;
25511;SDS011;13414;44.534;18.700;2023-08-30T15:51:36;17.27;;;14.48;;
25511;SDS011;13414;44.534;18.700;2023-08-30T15:54:05;20.08;;;15.93;;
25511;SDS011;13414;44.534;18.700;2023-08-30T15:56:32;17.20;;;14.35;;
25511;SDS011;13414;44.534;18.700;2023-08-30T15:59:00;29.38;;;12.48;;
25511;SDS011;13414;44.534;18.700;2023-08-30T16:01:27;24.25;;;11.18;;
25511;SDS011;13414;44.534;18.700;2023-08-30T16:03:55;16.05;;;9.82;;
25511;SDS011;13414;44.534;18.700;2023-08-30T16:06:22;10.55;;;7.05;;
25511;SDS011;13414;44.534;18.700;2023-08-30T16:08:50;11.45;;;8.23;;
25511;SDS011;13414;44.534;18.700;2023-08-30T16:11:19;13.23;;;11.02;;
25511;SDS011;13414;44.534;18.700;2023-08-30T16:13:47;26.35;;;18.02;;
25511;SDS011;13414;44.534;18.700;2023-08-30T16:16:16;17.30;;;13.45;;
25511;SDS011;13414;44.534;18.700;2023-08-30T16:18:43;16.58;;;11.13;;
25511;SDS011;13414;44.534;18.700;2023-08-30T16:21:11;13.38;;;9.73;;
25511;SDS011;13414;44.534;18.700;2023-08-30T16:23:38;18.88;;;16.38;;
25511;SDS011;13414;44.534;18.700;2023-08-30T16:26:05;16.85;;;14.65;;
25511;SDS011;13414;44.534;18.700;2023-08-30T16:28:34;16.48;;;13.93;;
25511;SDS011;13414;44.534;18.700;2023-08-30T16:31:03;18.80;;;14.60;;
25511;SDS011;13414;44.534;18.700;2023-08-30T16:33:31;18.70;;;16.83;;
25511;SDS011;13414;44.534;18.700;2023-08-30T16:36:00;20.08;;;15.68;;
25511;SDS011;13414;44.534;18.700;2023-08-30T16:38:29;16.38;;;14.65;;
25511;SDS011;13414;44.534;18.700;2023-08-30T16:40:58;14.43;;;12.25;;
25511;SDS011;13414;44.534;18.700;2023-08-30T16:43:29;14.48;;;12.27;;
25511;SDS011;13414;44.534;18.700;2023-08-30T16:45:58;12.88;;;11.57;;
25511;SDS011;13414;44.534;18.700;2023-08-30T16:48:26;13.52;;;10.90;;